createdAt,value
2019-03-22T00:00:45.440Z,78.13
2019-03-22T00:04:51.257Z,77.88
2019-03-22T00:13:13.981Z,78.47
2019-03-22T00:17:19.727Z,77.31
2019-03-22T00:21:25.456Z,77.21
2019-03-22T00:25:31.158Z,76.90
2019-03-22T00:29:36.903Z,76.83
2019-03-22T00:33:42.626Z,77.44
2019-03-22T00:37:48.265Z,75.72
2019-03-22T00:41:54.030Z,76.06
2019-03-22T00:45:59.721Z,77.25
2019-03-22T00:50:16.320Z,76.37
2019-03-22T00:54:22.416Z,76.68
2019-03-22T00:58:47.437Z,76.27
2019-03-22T01:03:04.635Z,75.65
2019-03-22T01:07:10.333Z,75.65
2019-03-22T01:11:16.114Z,75.73
2019-03-22T01:15:21.891Z,75.62
2019-03-22T01:19:27.587Z,75.65
2019-03-22T01:23:33.561Z,75.01
2019-03-22T01:27:40.626Z,76.02
2019-03-22T01:31:46.753Z,76.65
2019-03-22T01:35:52.516Z,77.10
2019-03-22T01:39:58.189Z,77.00
2019-03-22T01:44:03.945Z,78.53
2019-03-22T01:52:40.731Z,77.45
2019-03-22T01:56:46.397Z,77.37
2019-03-22T02:00:52.116Z,78.60
2019-03-22T02:04:57.795Z,78.78
2019-03-22T02:13:49.055Z,77.44
2019-03-22T02:17:54.875Z,77.28
2019-03-22T02:22:00.555Z,77.72
2019-03-22T02:26:06.314Z,78.45
2019-03-22T02:34:51.112Z,76.67
2019-03-22T02:38:56.839Z,77.06
2019-03-22T02:43:02.614Z,77.98
2019-03-22T02:47:08.322Z,76.09
2019-03-22T02:51:14.058Z,75.89
2019-03-22T02:55:19.729Z,75.86
2019-03-22T02:59:25.676Z,75.68
2019-03-22T03:03:31.422Z,76.25
2019-03-22T03:07:37.152Z,77.61
2019-03-22T03:11:42.968Z,77.91
2019-03-22T03:15:48.873Z,77.42
2019-03-22T03:19:54.623Z,75.75
2019-03-22T03:24:00.536Z,76.91
2019-03-22T03:28:06.191Z,77.89
2019-03-22T03:32:11.797Z,78.88
2019-03-22T03:36:17.579Z,79.85
2019-03-22T03:40:23.245Z,80.58
2019-03-22T03:44:28.979Z,80.49
2019-03-22T03:48:34.893Z,80.23
2019-03-22T03:52:40.610Z,80.12
2019-03-22T03:56:46.288Z,80.01
2019-03-22T04:00:53.501Z,78.99
2019-03-22T04:04:59.131Z,78.51
2019-03-22T04:09:17.209Z,79.54
2019-03-22T04:13:22.957Z,80.26
2019-03-22T04:17:28.602Z,80.91
2019-03-22T04:21:34.353Z,80.30
2019-03-22T04:25:40.114Z,80.84
2019-03-22T04:29:45.770Z,81.22
2019-03-22T04:33:51.477Z,80.26
2019-03-22T04:37:58.839Z,78.10
2019-03-22T04:42:04.541Z,78.32
2019-03-22T04:46:21.412Z,76.97
2019-03-22T05:00:14.064Z,75.19
2019-03-22T05:05:13.164Z,75.33
2019-03-22T05:14:09.866Z,77.68
2019-03-22T05:18:15.952Z,79.97
2019-03-22T05:32:09.543Z,80.36
2019-03-22T05:36:15.270Z,79.51
2019-03-22T05:40:21.076Z,80.39
2019-03-22T05:44:26.862Z,79.41
2019-03-22T05:48:44.085Z,78.90
2019-03-22T05:52:49.795Z,80.54
2019-03-22T05:56:55.760Z,80.56
2019-03-22T06:01:01.769Z,79.58
2019-03-22T06:05:08.046Z,79.10
2019-03-22T06:09:15.892Z,79.33
2019-03-22T06:13:22.158Z,79.55
2019-03-22T06:17:27.901Z,81.21
2019-03-22T06:21:33.578Z,81.77
2019-03-22T06:25:39.254Z,82.07
2019-03-22T06:30:14.963Z,81.92
2019-03-22T06:34:20.636Z,81.19
2019-03-22T06:38:26.738Z,81.02
2019-03-22T06:42:32.429Z,78.36
2019-03-22T06:46:38.644Z,77.28
2019-03-22T06:50:44.416Z,77.28
2019-03-22T06:54:50.480Z,79.15
2019-03-22T06:58:56.187Z,78.31
2019-03-22T07:03:02.287Z,78.08
2019-03-22T07:07:08.584Z,78.15
2019-03-22T07:11:14.317Z,78.20
2019-03-22T07:15:20.071Z,78.31
2019-03-22T07:19:25.837Z,76.61
2019-03-22T07:23:31.587Z,76.62
2019-03-22T07:27:37.357Z,75.79
2019-03-22T07:31:43.047Z,75.53
2019-03-22T07:35:48.763Z,74.21
2019-03-22T07:39:54.442Z,72.79
2019-03-22T07:44:00.193Z,72.46
2019-03-22T07:48:05.829Z,72.37
2019-03-22T07:52:11.588Z,71.55
2019-03-22T07:56:17.571Z,69.71
2019-03-22T08:00:30.536Z,69.16
2019-03-22T08:04:50.188Z,68.01
2019-03-22T08:08:55.843Z,66.83
2019-03-22T08:13:01.493Z,64.89
2019-03-22T08:17:07.227Z,64.23
2019-03-22T08:21:13.017Z,63.59
2019-03-22T08:25:18.827Z,63.52
2019-03-22T08:29:24.592Z,61.82
2019-03-22T08:33:30.426Z,59.41
2019-03-22T08:37:36.231Z,59.09
2019-03-22T08:41:41.990Z,57.23
2019-03-22T08:45:47.707Z,54.59
2019-03-22T08:49:53.373Z,54.06
2019-03-22T08:53:59.082Z,53.99
2019-03-22T08:58:04.765Z,52.45
2019-03-22T09:02:10.485Z,53.53
2019-03-22T09:06:16.790Z,52.60
2019-03-22T09:10:22.481Z,51.45
2019-03-22T09:14:28.196Z,51.41
2019-03-22T09:18:33.869Z,50.37
2019-03-22T09:22:39.575Z,51.16
2019-03-22T09:26:47.795Z,50.96
2019-03-22T09:31:20.741Z,47.78
2019-03-22T09:35:26.525Z,49.23
2019-03-22T09:39:32.125Z,47.49
2019-03-22T09:43:37.860Z,46.41
2019-03-22T09:47:43.560Z,47.55
2019-03-22T09:51:49.256Z,48.46
2019-03-22T09:55:54.895Z,46.95
2019-03-22T10:00:00.522Z,48.28
2019-03-22T10:04:06.328Z,45.72
2019-03-22T10:08:12.032Z,45.46
2019-03-22T10:12:17.711Z,44.92
2019-03-22T10:16:23.430Z,46.29
2019-03-22T10:20:29.203Z,44.93
2019-03-22T10:24:34.878Z,45.54
2019-03-22T10:28:40.553Z,44.55
2019-03-22T10:32:46.236Z,44.09
2019-03-22T10:36:51.918Z,44.80
2019-03-22T10:40:57.710Z,43.52
2019-03-22T10:45:03.397Z,44.78
2019-03-22T10:49:09.096Z,44.08
2019-03-22T10:53:14.928Z,42.26
2019-03-22T10:57:20.703Z,38.70
2019-03-22T11:01:26.509Z,39.65
2019-03-22T11:05:32.271Z,42.44
2019-03-22T11:09:37.951Z,42.77
2019-03-22T11:13:43.721Z,36.58
2019-03-22T11:17:49.381Z,35.52
2019-03-22T11:21:55.112Z,35.71
2019-03-22T11:26:04.379Z,35.83
2019-03-22T11:30:27.301Z,36.29
2019-03-22T11:34:32.964Z,35.45
2019-03-22T11:38:38.722Z,37.06
2019-03-22T11:42:44.422Z,34.28
2019-03-22T11:46:50.079Z,38.99
2019-03-22T11:50:55.843Z,39.04
2019-03-22T11:55:01.628Z,38.07
2019-03-22T11:59:07.356Z,36.42
2019-03-22T12:03:12.994Z,35.07
2019-03-22T12:07:19.507Z,34.26
2019-03-22T12:11:44.017Z,32.12
2019-03-22T12:15:49.906Z,35.93
2019-03-22T12:19:55.605Z,37.02
2019-03-22T12:24:01.277Z,35.88
2019-03-22T12:28:09.855Z,32.65
2019-03-22T12:32:15.522Z,32.71
2019-03-22T12:36:39.973Z,33.30
2019-03-22T12:40:46.690Z,34.06
2019-03-22T12:44:55.514Z,33.12
2019-03-22T12:49:01.411Z,33.85
2019-03-22T12:57:52.305Z,34.59
2019-03-22T13:01:58.084Z,33.84
2019-03-22T13:06:03.875Z,34.44
2019-03-22T13:10:48.834Z,34.52
2019-03-22T13:14:56.634Z,31.24
2019-03-22T13:19:21.294Z,32.85
2019-03-22T13:23:27.190Z,30.65
2019-03-22T13:27:32.918Z,30.29
2019-03-22T13:31:38.774Z,29.94
2019-03-22T13:35:44.451Z,30.84
2019-03-22T13:39:50.327Z,28.89
2019-03-22T13:43:55.992Z,25.59
2019-03-22T13:48:01.726Z,24.31
2019-03-22T13:52:07.686Z,25.62
2019-03-22T13:56:13.373Z,25.34
2019-03-22T14:00:19.234Z,26.47
2019-03-22T14:04:24.861Z,24.65
2019-03-22T14:08:30.586Z,24.53
2019-03-22T14:12:37.299Z,23.91
2019-03-22T14:16:49.311Z,23.71
2019-03-22T14:20:55.280Z,25.68
2019-03-22T14:25:01.302Z,26.04
2019-03-22T14:29:07.073Z,24.61
2019-03-22T14:33:13.745Z,24.66
2019-03-22T14:37:25.798Z,24.64
2019-03-22T14:41:50.299Z,26.32
2019-03-22T14:45:56.282Z,25.74
2019-03-22T14:50:02.066Z,25.09
2019-03-22T14:54:08.115Z,27.86
2019-03-22T14:58:13.884Z,25.19
2019-03-22T15:02:19.615Z,24.14
2019-03-22T15:06:25.383Z,24.28
2019-03-22T15:10:32.608Z,21.75
2019-03-22T15:14:57.339Z,23.22
2019-03-22T15:19:21.926Z,24.31
2019-03-22T15:23:42.193Z,23.73
2019-03-22T15:28:25.577Z,23.51
2019-03-22T15:32:50.236Z,24.56
2019-03-22T15:37:15.432Z,24.26
2019-03-22T15:41:28.255Z,23.79
2019-03-22T15:45:33.965Z,24.60
2019-03-22T15:49:58.512Z,23.69
2019-03-22T15:54:04.428Z,22.96
2019-03-22T15:58:11.709Z,23.96
2019-03-22T16:02:28.683Z,23.63
2019-03-22T16:06:34.414Z,22.88
2019-03-22T16:10:40.099Z,22.93
2019-03-22T16:14:45.794Z,23.51
2019-03-22T16:18:51.664Z,21.68
2019-03-22T16:22:57.390Z,22.42
2019-03-22T16:27:03.043Z,23.13
2019-03-22T16:31:09.059Z,22.32
2019-03-22T16:35:14.838Z,23.88
2019-03-22T16:39:20.538Z,21.63
2019-03-22T16:43:26.210Z,21.43
2019-03-22T16:47:31.854Z,25.09
2019-03-22T16:51:48.706Z,24.92
2019-03-22T16:55:54.476Z,25.87
2019-03-22T17:00:00.352Z,24.96
2019-03-22T17:04:06.077Z,23.87
2019-03-22T17:08:13.355Z,24.36
2019-03-22T17:12:20.681Z,24.19
2019-03-22T17:16:26.357Z,24.81
2019-03-22T17:20:32.098Z,23.25
2019-03-22T17:24:37.870Z,23.40
2019-03-22T17:28:43.492Z,24.05
2019-03-22T17:32:49.184Z,25.04
2019-03-22T17:37:13.892Z,27.90
2019-03-22T17:41:33.803Z,29.00
2019-03-22T17:45:46.098Z,31.46
2019-03-22T17:49:51.752Z,32.66
2019-03-22T17:53:57.384Z,32.47
2019-03-22T17:58:10.511Z,32.62
2019-03-22T18:02:17.880Z,33.28
2019-03-22T18:06:23.633Z,35.21
2019-03-22T18:10:29.310Z,35.92
2019-03-22T18:14:35.239Z,38.23
2019-03-22T18:18:40.893Z,37.86
2019-03-22T18:27:04.324Z,38.74
2019-03-22T18:31:09.983Z,39.31
2019-03-22T18:35:15.696Z,40.30
2019-03-22T18:39:21.718Z,41.42
2019-03-22T18:43:27.495Z,41.62
2019-03-22T18:47:33.182Z,40.84
2019-03-22T18:51:38.923Z,43.67
2019-03-22T18:55:44.641Z,43.35
2019-03-22T18:59:55.068Z,44.16
2019-03-22T19:04:01.101Z,46.37
2019-03-22T19:08:08.506Z,46.14
2019-03-22T19:12:14.565Z,47.13
2019-03-22T19:16:20.217Z,48.39
2019-03-22T19:20:25.902Z,50.16
2019-03-22T19:28:52.956Z,49.46
2019-03-22T19:32:58.626Z,50.89
2019-03-22T19:37:04.275Z,49.06
2019-03-22T19:41:09.983Z,49.82
2019-03-22T19:45:55.297Z,50.96
2019-03-22T19:50:01.024Z,50.20
2019-03-22T19:54:06.805Z,51.00
2019-03-22T19:58:12.596Z,52.96
2019-03-22T20:02:18.322Z,53.18
2019-03-22T20:06:25.647Z,52.44
2019-03-22T20:10:31.654Z,52.72
2019-03-22T20:14:37.604Z,53.51
2019-03-22T20:18:43.445Z,54.04
2019-03-22T20:22:49.246Z,55.19
2019-03-22T20:26:55.181Z,52.61
2019-03-22T20:31:19.721Z,51.38
2019-03-22T20:35:44.183Z,54.03
2019-03-22T20:39:50.017Z,54.71
2019-03-22T20:43:57.301Z,56.72
2019-03-22T20:48:22.264Z,55.98
2019-03-22T20:52:28.066Z,54.21
2019-03-22T20:56:33.793Z,54.85
2019-03-22T21:00:39.646Z,55.06
2019-03-22T21:04:45.426Z,56.93
2019-03-22T21:08:51.203Z,54.34
2019-03-22T21:12:56.921Z,53.88
2019-03-22T21:17:02.833Z,57.07
2019-03-22T21:21:08.554Z,58.24
2019-03-22T21:25:14.339Z,54.98
2019-03-22T21:29:20.382Z,54.26
2019-03-22T21:33:26.015Z,56.88
2019-03-22T21:37:31.717Z,57.05
2019-03-22T21:41:37.556Z,55.82
2019-03-22T21:45:43.252Z,56.22
2019-03-22T21:49:48.980Z,55.60
2019-03-22T21:53:54.651Z,54.15
2019-03-22T21:58:00.399Z,53.41
2019-03-22T22:02:06.431Z,52.70
2019-03-22T22:15:39.234Z,52.21
2019-03-22T22:19:46.542Z,53.09
2019-03-22T22:23:52.279Z,53.36
2019-03-22T22:27:58.055Z,53.57
2019-03-22T22:32:03.819Z,54.08
2019-03-22T22:36:11.407Z,54.52
2019-03-22T22:40:17.252Z,54.74
2019-03-22T22:44:23.031Z,55.19
2019-03-22T22:48:28.757Z,55.98
2019-03-22T22:52:34.559Z,56.06
2019-03-22T22:56:40.481Z,55.50
2019-03-22T23:05:06.495Z,56.38
2019-03-22T23:09:12.199Z,57.07
2019-03-22T23:13:18.014Z,57.28
2019-03-22T23:17:25.851Z,57.36
2019-03-22T23:21:31.562Z,57.09
2019-03-22T23:25:37.465Z,57.34
2019-03-22T23:29:43.184Z,58.45
2019-03-22T23:33:48.946Z,58.58
2019-03-22T23:37:54.607Z,58.33
2019-03-22T23:42:00.416Z,58.97
2019-03-22T23:46:06.125Z,59.31
2019-03-22T23:54:49.298Z,59.99
2019-03-22T23:58:55.029Z,59.97
